Terminal Aerodrome Forecast
Issued by NWS

Home | Current Version | Previous Version | Text Only | Print | Product List | Glossary On
Versions: 1 2 3 4 5 6 7 8 9 10 11 12 13 14 15 16 17 18 19 20 21 22
000
FTUS42 KFFC 202212 AAB
TAFPDK
TAF AMD
KPDK 202212Z 2022/2118 36003KT 6SM BR OVC014
     FM210000 02003KT 6SM BR OVC012
      TEMPO 2100/2103 OVC009
     FM210300 00000KT 5SM BR OVC008
     FM211200 00000KT 2SM BR OVC005
     FM211400 07005KT 3SM BR BKN007 OVC015
     FM211600 08006KT P6SM BKN015=

USA.gov is the U.S. government's official web portal to all federal, state and local government web resources and services.